Montezuma, Indiana
Current Conditions -  °F | °C
As of 5:35 AM on Thursday 18 Dec 2014 (Local Time) from KPRG Reporting Station
Overcast Overcast  
Wind Chill: 26°   Ceiling: 1600
Heat Index: 26°   Visibility: 10mi
Dew Point: 21°   Wind: 0mph
Humidity: 82%   Direction: NA
Pressure: 30.28"   Gusts: NA
Location:  39.79°N, 87.37°W
Report Text: KPRG 181035Z AUTO 00000KT 10SM OVC016 M03/M06 A3028 RMK AO2 T10351061
Loading
Personal Weather Stations






























Interactive Weather Map New forecast layout! Learn more

10-Day Weather Forecast

Advertisements
Track Severe Weather on mobile